Time;durP1;ratioP1;P1;durP2;ratioP2;P2;SDS_P1;SDS_P2;PMS_P1;PMS_P2;Temp;Humidity;BMP_temperature;BMP_pressure;BME280_temperature;BME280_humidity;BME280_pressure;Samples;Min_cycle;Max_cycle;Signal;HPM_P1;HPM_P2
2023/05/28 01:10:13;;;;;;;;;;;;;;;;;;132699;1311;544515;-80
2023/05/28 01:13:15;;;;;;;;;;;;;;;;;;135774;1286;22562;-80
2023/05/28 01:16:17;;;;;;;;;;;;;;;;;;136903;1278;22615;-80
2023/05/28 01:19:20;;;;;;;;;;;;;;;;;;136821;1278;22478;-80
2023/05/28 01:22:22;;;;;;;;;;;;;;;;;;136286;1275;270596;-81
2023/05/28 01:25:26;;;;;;;;;;;;;;;;;;136924;1275;22519;-83
2023/05/28 01:28:28;;;;;;;;;;;;;;;;;;137257;1275;22548;-80
2023/05/28 01:31:30;;;;;;;;;;;;;;;;;;136776;1275;22515;-82
2023/05/28 01:34:33;;;;;;;;;;;;;;;;;;136858;1275;22537;-81
2023/05/28 01:37:35;;;;;;;;;;;;;;;;;;137258;1275;23652;-81
2023/05/28 01:40:38;;;;;;;;;;;;;;;;;;136831;1275;22515;-81
2023/05/28 01:43:41;;;;;;;;;;;;;;;;;;136876;1275;22508;-81
2023/05/28 01:46:43;;;;;;;;;;;;;;;;;;137107;1275;22520;-82
2023/05/28 01:49:46;;;;;;;;;;;;;;;;;;136961;1275;22530;-80
2023/05/28 01:52:48;;;;;;;;;;;;;;;;;;136706;1275;22845;-82
2023/05/28 01:55:51;;;;;;;;;;;;;;;;;;136966;1275;22585;-82
2023/05/28 01:58:53;;;;;;;;;;;;;;;;;;137217;1275;22505;-81
2023/05/28 02:01:56;;;;;;;;;;;;;;;;;;136827;1275;22551;-83
2023/05/28 02:04:58;;;;;;;;;;;;;;;;;;136837;1272;22555;-82
2023/05/28 02:08:01;;;;;;;;;;;;;;;;;;137191;1275;22978;-82
2023/05/28 02:11:03;;;;;;;;;;;;;;;;;;136825;1275;22524;-82
2023/05/28 02:14:05;;;;;;;;;;;;;;;;;;136869;1275;22533;-80
2023/05/28 02:17:08;;;;;;;;;;;;;;;;;;137306;1275;22544;-80
2023/05/28 02:20:11;;;;;;;;;;;;;;;;;;136900;1275;22511;-81
2023/05/28 02:23:14;;;;;;;;;;;;;;;;;;136681;1275;22497;-82
2023/05/28 02:26:16;;;;;;;;;;;;;;;;;;137084;1275;22503;-82
2023/05/28 02:29:19;;;;;;;;;;;;;;;;;;137031;1275;22580;-82
2023/05/28 02:32:22;;;;;;;;;;;;;;;;;;136768;1275;22487;-82
2023/05/28 02:35:25;;;;;;;;;;;;;;;;;;136811;1275;22506;-82
2023/05/28 02:38:28;;;;;;;;;;;;;;;;;;137272;1275;23075;-82
2023/05/28 02:41:30;;;;;;;;;;;;;;;;;;136845;1275;22526;-83
2023/05/28 02:44:32;;;;;;;;;;;;;;;;;;136810;1275;23141;-82
2023/05/28 02:47:35;;;;;;;;;;;;;;;;;;137327;1275;22927;-83
2023/05/28 02:50:37;;;;;;;;;;;;;;;;;;136905;1275;22503;-84
2023/05/28 02:53:40;;;;;;;;;;;;;;;;;;136756;1275;22605;-83
2023/05/28 02:56:42;;;;;;;;;;;;;;;;;;136933;1275;24182;-83
2023/05/28 02:59:44;;;;;;;;;;;;;;;;;;137020;1275;22496;-83
2023/05/28 03:02:47;;;;;;;;;;;;;;;;;;136757;1275;22483;-83
2023/05/28 03:05:52;;;;;;;;;;;;;;;;;;136851;1275;22507;-83
2023/05/28 03:08:54;;;;;;;;;;;;;;;;;;137277;1275;22470;-83
2023/05/28 03:11:57;;;;;;;;;;;;;;;;;;136801;1275;22495;-83
2023/05/28 03:14:59;;;;;;;;;;;;;;;;;;136751;1275;22559;-84
2023/05/28 03:18:03;;;;;;;;;;;;;;;;;;137364;1275;22523;-81
2023/05/28 03:21:05;;;;;;;;;;;;;;;;;;137048;1275;22523;-81
2023/05/28 03:24:08;;;;;;;;;;;;;;;;;;136734;1275;22557;-83
2023/05/28 03:27:10;;;;;;;;;;;;;;;;;;137163;1275;25303;-83
2023/05/28 03:30:14;;;;;;;;;;;;;;;;;;136971;1275;22477;-82
2023/05/28 03:33:16;;;;;;;;;;;;;;;;;;136828;1275;22521;-83
2023/05/28 03:36:19;;;;;;;;;;;;;;;;;;136985;1275;24492;-82
2023/05/28 03:39:24;;;;;;;;;;;;;;;;;;137283;1275;22497;-83
2023/05/28 03:42:29;;;;;;;;;;;;;;;;;;136803;1275;22537;-82
2023/05/28 03:45:31;;;;;;;;;;;;;;;;;;136801;1275;22584;-82
2023/05/28 03:48:34;;;;;;;;;;;;;;;;;;137403;1273;22366;-82
2023/05/28 03:51:36;;;;;;;;;;;;;;;;;;136799;1275;22533;-82
2023/05/28 03:54:39;;;;;;;;;;;;;;;;;;136967;1272;22557;-82
2023/05/28 03:57:41;;;;;;;;;;;;;;;;;;137206;1275;22621;-82
2023/05/28 04:00:44;;;;;;;;;;;;;;;;;;136970;1275;22520;-82
2023/05/28 04:03:50;;;;;;;;;;;;;;;;;;136976;1275;22600;-81
2023/05/28 04:06:55;;;;;;;;;;;;;;;;;;137017;1275;22520;-81
2023/05/28 04:09:58;;;;;;;;;;;;;;;;;;137271;1275;22512;-82
2023/05/28 04:13:00;;;;;;;;;;;;;;;;;;136972;1275;22491;-82
2023/05/28 04:16:02;;;;;;;;;;;;;;;;;;136873;1275;22990;-81
2023/05/28 04:19:13;;;;;;;;;;;;;;;;;;137366;1275;23084;-82
2023/05/28 04:22:15;;;;;;;;;;;;;;;;;;136911;1275;22538;-81
2023/05/28 04:25:20;;;;;;;;;;;;;;;;;;137002;1275;22548;-83
2023/05/28 04:28:24;;;;;;;;;;;;;;;;;;137169;1275;22603;-81
2023/05/28 04:31:27;;;;;;;;;;;;;;;;;;137066;1268;23135;-82
2023/05/28 04:34:32;;;;;;;;;;;;;;;;;;137036;1275;22493;-82
2023/05/28 04:37:36;;;;;;;;;;;;;;;;;;137157;1275;22525;-82
2023/05/28 04:40:39;;;;;;;;;;;;;;;;;;137176;1275;22496;-82
2023/05/28 04:43:42;;;;;;;;;;;;;;;;;;136766;1275;22570;-84
2023/05/28 04:46:45;;;;;;;;;;;;;;;;;;136858;1275;22529;-82
2023/05/28 04:49:48;;;;;;;;;;;;;;;;;;137224;1275;22559;-83
2023/05/28 04:52:53;;;;;;;;;;;;;;;;;;136882;1275;22489;-83
2023/05/28 04:55:55;;;;;;;;;;;;;;;;;;137033;1275;23094;-81
2023/05/28 04:58:58;;;;;;;;;;;;;;;;;;137296;1275;22556;-83
2023/05/28 05:02:00;;;;;;;;;;;;;;;;;;136942;1275;22481;-83
2023/05/28 05:05:03;;;;;;;;;;;;;;;;;;136958;1275;22628;-83
2023/05/28 05:08:05;;;;;;;;;;;;;;;;;;137057;1275;22529;-82
2023/05/28 05:11:08;;;;;;;;;;;;;;;;;;136968;1275;22506;-82
2023/05/28 05:14:11;;;;;;;;;;;;;;;;;;137125;1275;22618;-82
2023/05/28 05:17:14;;;;;;;;;;;;;;;;;;137330;1275;22510;-83
2023/05/28 05:20:16;;;;;;;;;;;;;;;;;;137192;1271;22546;-83
2023/05/28 05:23:19;;;;;;;;;;;;;;;;;;136986;1275;22522;-82
2023/05/28 05:26:22;;;;;;;;;;;;;;;;;;137349;1275;22491;-82
2023/05/28 05:29:24;;;;;;;;;;;;;;;;;;137368;1275;22790;-83
2023/05/28 05:32:27;;;;;;;;;;;;;;;;;;137351;1275;23048;-83
2023/05/28 05:35:29;;;;;;;;;;;;;;;;;;137158;1275;22524;-83
2023/05/28 05:38:32;;;;;;;;;;;;;;;;;;137347;1275;22971;-83
2023/05/28 05:41:34;;;;;;;;;;;;;;;;;;137316;1275;22878;-84
2023/05/28 05:44:37;;;;;;;;;;;;;;;;;;137278;1275;22990;-84
2023/05/28 05:47:39;;;;;;;;;;;;;;;;;;137367;1275;22283;-84
2023/05/28 05:50:42;;;;;;;;;;;;;;;;;;137349;1275;22323;-84
2023/05/28 05:53:44;;;;;;;;;;;;;;;;;;137212;1275;22522;-83
2023/05/28 05:56:46;;;;;;;;;;;;;;;;;;137241;1275;22939;-83
2023/05/28 05:59:49;;;;;;;;;;;;;;;;;;137238;1275;22601;-83
2023/05/28 06:02:51;;;;;;;;;;;;;;;;;;137358;1275;22555;-83
2023/05/28 06:05:54;;;;;;;;;;;;;;;;;;137364;1275;22829;-82
2023/05/28 06:08:57;;;;;;;;;;;;;;;;;;137374;1275;22449;-83
2023/05/28 06:12:01;;;;;;;;;;;;;;;;;;137373;1275;22363;-83
2023/05/28 06:15:05;;;;;;;;;;;;;;;;;;137354;1275;22329;-83
2023/05/28 06:18:08;;;;;;;;;;;;;;;;;;137319;1275;22939;-83
2023/05/28 06:21:11;;;;;;;;;;;;;;;;;;137209;1275;22610;-83
2023/05/28 06:24:13;;;;;;;;;;;;;;;;;;137136;1275;22533;-82
2023/05/28 06:27:16;;;;;;;;;;;;;;;;;;137369;1275;22567;-83
2023/05/28 06:30:18;;;;;;;;;;;;;;;;;;137276;1275;22489;-83
2023/05/28 06:33:21;;;;;;;;;;;;;;;;;;137491;1275;22493;-82
2023/05/28 06:36:23;;;;;;;;;;;;;;;;;;137484;1275;22360;-82
2023/05/28 06:39:26;;;;;;;;;;;;;;;;;;137264;1275;22497;-82
2023/05/28 06:42:28;;;;;;;;;;;;;;;;;;137126;1275;22518;-81
2023/05/28 06:45:32;;;;;;;;;;;;;;;;;;137335;1275;22329;-81
2023/05/28 06:48:35;;;;;;;;;;;;;;;;;;137319;1275;22377;-81
2023/05/28 06:51:37;;;;;;;;;;;;;;;;;;137202;1275;22563;-81
2023/05/28 06:54:40;;;;;;;;;;;;;;;;;;137342;1275;22321;-81
2023/05/28 06:57:44;;;;;;;;;;;;;;;;;;137359;1275;22416;-81
2023/05/28 07:00:46;;;;;;;;;;;;;;;;;;137328;1275;22355;-81
2023/05/28 07:03:49;;;;;;;;;;;;;;;;;;137300;1275;22518;-81
2023/05/28 07:06:53;;;;;;;;;;;;;;;;;;137353;1275;22554;-82
2023/05/28 07:09:55;;;;;;;;;;;;;;;;;;137284;1275;22876;-81
2023/05/28 07:12:58;;;;;;;;;;;;;;;;;;137302;1275;22525;-82
2023/05/28 07:16:00;;;;;;;;;;;;;;;;;;137368;1275;22509;-82
2023/05/28 07:19:02;;;;;;;;;;;;;;;;;;137254;1275;22578;-82
2023/05/28 07:22:05;;;;;;;;;;;;;;;;;;137258;1271;22513;-81
2023/05/28 07:25:08;;;;;;;;;;;;;;;;;;137291;1275;22523;-81
2023/05/28 07:28:10;;;;;;;;;;;;;;;;;;137257;1275;22556;-81
2023/05/28 07:31:13;;;;;;;;;;;;;;;;;;137211;1275;22546;-82
2023/05/28 07:34:15;;;;;;;;;;;;;;;;;;137313;1271;22505;-81
2023/05/28 07:37:17;;;;;;;;;;;;;;;;;;137233;1275;22524;-82
2023/05/28 07:40:20;;;;;;;;;;;;;;;;;;137199;1275;22504;-82
2023/05/28 07:43:22;;;;;;;;;;;;;;;;;;137368;1275;22899;-82
2023/05/28 07:46:25;;;;;;;;;;;;;;;;;;137306;1275;22493;-82
2023/05/28 07:49:27;;;;;;;;;;;;;;;;;;137379;1275;22595;-83
2023/05/28 07:52:30;;;;;;;;;;;;;;;;;;137322;1275;23062;-82
2023/05/28 07:55:32;;;;;;;;;;;;;;;;;;137222;1275;22561;-82
2023/05/28 07:58:34;;;;;;;;;;;;;;;;;;137236;1275;22501;-81
2023/05/28 08:01:37;;;;;;;;;;;;;;;;;;137245;1275;22501;-82
2023/05/28 08:04:39;;;;;;;;;;;;;;;;;;137331;1275;22526;-82
2023/05/28 08:07:42;;;;;;;;;;;;;;;;;;137235;1275;22496;-82
2023/05/28 08:10:44;;;;;;;;;;;;;;;;;;137295;1268;22516;-82
2023/05/28 08:13:47;;;;;;;;;;;;;;;;;;137302;1275;22521;-81
2023/05/28 08:16:49;;;;;;;;;;;;;;;;;;137362;1275;22521;-82
2023/05/28 08:19:52;;;;;;;;;;;;;;;;;;137243;1275;23078;-81
2023/05/28 08:22:54;;;;;;;;;;;;;;;;;;137160;1275;22592;-82
2023/05/28 08:25:57;;;;;;;;;;;;;;;;;;137399;1275;22333;-82
2023/05/28 08:29:00;;;;;;;;;;;;;;;;;;137094;1275;22530;-82
2023/05/28 08:32:02;;;;;;;;;;;;;;;;;;137103;1275;22594;-82
2023/05/28 08:35:05;;;;;;;;;;;;;;;;;;137379;1275;22309;-81
2023/05/28 08:38:07;;;;;;;;;;;;;;;;;;137344;1275;22576;-82
2023/05/28 08:41:10;;;;;;;;;;;;;;;;;;137117;1275;22532;-82
2023/05/28 08:44:12;;;;;;;;;;;;;;;;;;137323;1275;22543;-82
2023/05/28 08:47:17;;;;;;;;;;;;;;;;;;136895;1264;22634;-82
2023/05/28 08:50:20;;;;;;;;;;;;;;;;;;136966;1275;22512;-82
2023/05/28 08:53:23;;;;;;;;;;;;;;;;;;137011;1275;22597;-81
2023/05/28 08:56:25;;;;;;;;;;;;;;;;;;137168;1275;22498;-81
2023/05/28 08:59:27;;;;;;;;;;;;;;;;;;136848;1275;23052;-81
2023/05/28 09:02:30;;;;;;;;;;;;;;;;;;136694;1275;22498;-79
2023/05/28 09:05:32;;;;;;;;;;;;;;;;;;137279;1275;22527;-80
2023/05/28 09:08:35;;;;;;;;;;;;;;;;;;136957;1275;22502;-80
2023/05/28 09:11:37;;;;;;;;;;;;;;;;;;136868;1275;22517;-81
2023/05/28 09:14:40;;;;;;;;;;;;;;;;;;137672;1258;22273;-80
2023/05/28 09:17:42;;;;;;;;;;;;;;;;;;137136;1272;22497;-79
2023/05/28 09:20:45;;;;;;;;;;;;;;;;;;137089;1272;22495;-81
2023/05/28 09:23:47;;;;;;;;;;;;;;;;;;137380;1272;22531;-81
2023/05/28 09:26:50;;;;;;;;;;;;;;;;;;137310;1272;22634;-82
2023/05/28 09:29:52;;;;;;;;;;;;;;;;;;137103;1272;22864;-81
2023/05/28 09:32:55;;;;;;;;;;;;;;;;;;137068;1272;22534;-81
2023/05/28 09:35:57;;;;;;;;;;;;;;;;;;137448;1272;22518;-82
2023/05/28 09:39:00;;;;;;;;;;;;;;;;;;137053;1272;22519;-82
2023/05/28 09:42:06;;;;;;;;;;;;;;;;;;137108;1272;22579;-82
2023/05/28 09:45:08;;;;;;;;;;;;;;;;;;137594;1272;22492;-82
2023/05/28 09:48:11;;;;;;;;;;;;;;;;;;137149;1268;22956;-82
2023/05/28 09:51:13;;;;;;;;;;;;;;;;;;137188;1272;22501;-82
2023/05/28 09:54:15;;;;;;;;;;;;;;;;;;137520;1272;22539;-82
2023/05/28 09:57:18;;;;;;;;;;;;;;;;;;137187;1272;22506;-82
2023/05/28 10:00:22;;;;;;;;;;;;;;;;;;137196;1272;22499;-83
2023/05/28 10:03:25;;;;;;;;;;;;;;;;;;137322;1272;22518;-83
2023/05/28 10:06:27;;;;;;;;;;;;;;;;;;137403;1272;22545;-82
2023/05/28 10:09:32;;;;;;;;;;;;;;;;;;137233;1272;22480;-82
2023/05/28 10:12:34;;;;;;;;;;;;;;;;;;137030;1272;22561;-82
2023/05/28 10:15:37;;;;;;;;;;;;;;;;;;137589;1272;22496;-81
2023/05/28 10:18:39;;;;;;;;;;;;;;;;;;137096;1272;22473;-82
2023/05/28 10:21:42;;;;;;;;;;;;;;;;;;137245;1272;22541;-79
2023/05/28 10:24:44;;;;;;;;;;;;;;;;;;137380;1272;22546;-79
2023/05/28 10:27:48;;;;;;;;;;;;;;;;;;137312;1272;22496;-78
2023/05/28 10:30:50;;;;;;;;;;;;;;;;;;137649;1272;22411;-81
2023/05/28 10:33:53;;;;;;;;;;;;;;;;;;137381;1272;22607;-81
2023/05/28 10:36:55;;;;;;;;;;;;;;;;;;137485;1272;23060;-80
2023/05/28 10:39:58;;;;;;;;;;;;;;;;;;137627;1272;22450;-80
2023/05/28 10:43:00;;;;;;;;;;;;;;;;;;137198;1272;22555;-80
2023/05/28 10:46:03;;;;;;;;;;;;;;;;;;137537;1272;23017;-80
2023/05/28 10:49:05;;;;;;;;;;;;;;;;;;137201;1272;22496;-79
2023/05/28 10:52:07;;;;;;;;;;;;;;;;;;137599;1272;22832;-79
2023/05/28 10:55:10;;;;;;;;;;;;;;;;;;137631;1272;22326;-79
2023/05/28 10:58:13;;;;;;;;;;;;;;;;;;137637;1272;22391;-80
2023/05/28 11:01:16;;;;;;;;;;;;;;;;;;137149;1272;22855;-80
2023/05/28 11:04:18;;;;;;;;;;;;;;;;;;137333;1272;22503;-83
2023/05/28 11:07:21;;;;;;;;;;;;;;;;;;137321;1270;23696;-81
2023/05/28 11:10:23;;;;;;;;;;;;;;;;;;137170;1272;22879;-81
2023/05/28 11:13:26;;;;;;;;;;;;;;;;;;137184;1272;22614;-82
2023/05/28 11:16:28;;;;;;;;;;;;;;;;;;137527;1272;22984;-81
2023/05/28 11:19:31;;;;;;;;;;;;;;;;;;137248;1272;22504;-81
2023/05/28 11:22:33;;;;;;;;;;;;;;;;;;137202;1272;22492;-80
2023/05/28 11:25:35;;;;;;;;;;;;;;;;;;137455;1272;22910;-80
2023/05/28 11:28:38;;;;;;;;;;;;;;;;;;137094;1272;22527;-80
2023/05/28 11:31:40;;;;;;;;;;;;;;;;;;137201;1272;22936;-80
2023/05/28 11:34:43;;;;;;;;;;;;;;;;;;137457;1272;22520;-84
2023/05/28 11:37:45;;;;;;;;;;;;;;;;;;137308;1272;22943;-79
2023/05/28 11:40:48;;;;;;;;;;;;;;;;;;137147;1272;23011;-80
2023/05/28 11:43:50;;;;;;;;;;;;;;;;;;137257;1272;22513;-82
2023/05/28 11:46:53;;;;;;;;;;;;;;;;;;137576;1272;22488;-80
2023/05/28 11:49:55;;;;;;;;;;;;;;;;;;137143;1272;22528;-81
2023/05/28 11:52:57;;;;;;;;;;;;;;;;;;137277;1272;22500;-80
2023/05/28 11:56:00;;;;;;;;;;;;;;;;;;137630;1272;22951;-80
2023/05/28 11:59:02;;;;;;;;;;;;;;;;;;137176;1272;22588;-79
2023/05/28 12:02:05;;;;;;;;;;;;;;;;;;137172;1272;22474;-81
2023/05/28 12:05:07;;;;;;;;;;;;;;;;;;137519;1272;22549;-82
2023/05/28 12:08:10;;;;;;;;;;;;;;;;;;137209;1272;22515;-81
2023/05/28 12:11:13;;;;;;;;;;;;;;;;;;137248;1272;22968;-81
2023/05/28 12:14:16;;;;;;;;;;;;;;;;;;137191;1272;22532;-80
2023/05/28 12:17:19;;;;;;;;;;;;;;;;;;137529;1272;23106;-80
2023/05/28 12:20:21;;;;;;;;;;;;;;;;;;137118;1272;23074;-81
2023/05/28 12:23:24;;;;;;;;;;;;;;;;;;137128;1272;22576;-80
2023/05/28 12:26:27;;;;;;;;;;;;;;;;;;137511;1272;22497;-80
2023/05/28 12:29:29;;;;;;;;;;;;;;;;;;137078;1272;22511;-80
2023/05/28 12:32:32;;;;;;;;;;;;;;;;;;137120;1272;22486;-80
2023/05/28 12:35:34;;;;;;;;;;;;;;;;;;137563;1268;22543;-82
2023/05/28 12:38:37;;;;;;;;;;;;;;;;;;137186;1272;22485;-80
2023/05/28 12:41:39;;;;;;;;;;;;;;;;;;137094;1272;22545;-79
2023/05/28 12:44:42;;;;;;;;;;;;;;;;;;137299;1272;22504;-81
2023/05/28 12:47:44;;;;;;;;;;;;;;;;;;137366;1272;23027;-80
2023/05/28 12:50:46;;;;;;;;;;;;;;;;;;137092;1272;22510;-80
2023/05/28 12:53:49;;;;;;;;;;;;;;;;;;137113;1272;22530;-80
2023/05/28 12:56:51;;;;;;;;;;;;;;;;;;137557;1272;22546;-81
2023/05/28 12:59:54;;;;;;;;;;;;;;;;;;137133;1272;22925;-82
2023/05/28 13:02:56;;;;;;;;;;;;;;;;;;137157;1260;22859;-82
2023/05/28 13:05:59;;;;;;;;;;;;;;;;;;137542;1272;22544;-83
2023/05/28 13:09:02;;;;;;;;;;;;;;;;;;137059;1272;22525;-81
2023/05/28 13:12:05;;;;;;;;;;;;;;;;;;137153;1272;22524;-80
2023/05/28 13:15:07;;;;;;;;;;;;;;;;;;137278;1272;22614;-84
2023/05/28 13:18:10;;;;;;;;;;;;;;;;;;137407;1272;22483;-81
2023/05/28 13:21:12;;;;;;;;;;;;;;;;;;137152;1272;22498;-80
2023/05/28 13:24:15;;;;;;;;;;;;;;;;;;137054;1272;176002;-80
2023/05/28 13:27:17;;;;;;;;;;;;;;;;;;137530;1272;22540;-81
2023/05/28 13:30:20;;;;;;;;;;;;;;;;;;137219;1272;22498;-81
2023/05/28 13:33:22;;;;;;;;;;;;;;;;;;137095;1272;22502;-80
2023/05/28 13:36:25;;;;;;;;;;;;;;;;;;137527;1272;22551;-81
2023/05/28 13:39:27;;;;;;;;;;;;;;;;;;137108;1272;22552;-81
2023/05/28 13:42:30;;;;;;;;;;;;;;;;;;137150;1272;22507;-82
2023/05/28 13:45:32;;;;;;;;;;;;;;;;;;137322;1272;22518;-83
2023/05/28 13:48:34;;;;;;;;;;;;;;;;;;137347;1272;22512;-81
2023/05/28 13:51:39;;;;;;;;;;;;;;;;;;137136;1268;22490;-81
2023/05/28 13:54:41;;;;;;;;;;;;;;;;;;137126;1272;22979;-81
2023/05/28 13:57:44;;;;;;;;;;;;;;;;;;137500;1268;22547;-81
2023/05/28 14:00:46;;;;;;;;;;;;;;;;;;137041;1271;22528;-81
2023/05/28 14:03:49;;;;;;;;;;;;;;;;;;137047;1272;22535;-81
2023/05/28 14:06:51;;;;;;;;;;;;;;;;;;137642;1272;22394;-81
2023/05/28 14:09:54;;;;;;;;;;;;;;;;;;137081;1272;22499;-80
2023/05/28 14:13:00;;;;;;;;;;;;;;;;;;137109;1272;22621;-80
2023/05/28 14:16:03;;;;;;;;;;;;;;;;;;137424;1272;22618;-80
2023/05/28 14:19:05;;;;;;;;;;;;;;;;;;137220;1272;22690;-81
2023/05/28 14:22:08;;;;;;;;;;;;;;;;;;137068;1272;22533;-80
2023/05/28 14:25:10;;;;;;;;;;;;;;;;;;137168;1268;23272;-80
2023/05/28 14:28:13;;;;;;;;;;;;;;;;;;137463;1272;22590;-80
2023/05/28 14:31:15;;;;;;;;;;;;;;;;;;137092;1272;22490;-81
2023/05/28 14:34:18;;;;;;;;;;;;;;;;;;137127;1272;22537;-80
2023/05/28 14:37:20;;;;;;;;;;;;;;;;;;137532;1272;23075;-80
2023/05/28 14:40:23;;;;;;;;;;;;;;;;;;137164;1272;23092;-81
2023/05/28 14:43:25;;;;;;;;;;;;;;;;;;137174;1272;22580;-81
2023/05/28 14:46:28;;;;;;;;;;;;;;;;;;137524;1272;22528;-80
2023/05/28 14:49:30;;;;;;;;;;;;;;;;;;137382;1272;22499;-80
2023/05/28 14:52:32;;;;;;;;;;;;;;;;;;137373;1272;22515;-80
2023/05/28 14:55:35;;;;;;;;;;;;;;;;;;137136;1272;22557;-78
2023/05/28 14:58:37;;;;;;;;;;;;;;;;;;137648;1272;22495;-80
2023/05/28 15:01:40;;;;;;;;;;;;;;;;;;137281;1268;22557;-79
2023/05/28 15:04:42;;;;;;;;;;;;;;;;;;137167;1272;22552;-79
2023/05/28 15:07:45;;;;;;;;;;;;;;;;;;137622;1272;22568;-81
2023/05/28 15:10:47;;;;;;;;;;;;;;;;;;137077;1272;22516;-81
2023/05/28 15:13:50;;;;;;;;;;;;;;;;;;137105;1272;22498;-79
2023/05/28 15:16:53;;;;;;;;;;;;;;;;;;137468;1268;22660;-80
2023/05/28 15:19:57;;;;;;;;;;;;;;;;;;137164;1272;22505;-80
2023/05/28 15:23:00;;;;;;;;;;;;;;;;;;137075;1272;22512;-80
2023/05/28 15:26:02;;;;;;;;;;;;;;;;;;137289;1268;22518;-81
2023/05/28 15:29:05;;;;;;;;;;;;;;;;;;137579;1272;22508;-80
2023/05/28 15:32:07;;;;;;;;;;;;;;;;;;137126;1272;22549;-81
2023/05/28 15:35:10;;;;;;;;;;;;;;;;;;137153;1272;22538;-80
2023/05/28 15:38:12;;;;;;;;;;;;;;;;;;137595;1272;22498;-80
2023/05/28 15:41:15;;;;;;;;;;;;;;;;;;137132;1272;22489;-80
2023/05/28 15:44:17;;;;;;;;;;;;;;;;;;137097;1272;23186;-80
2023/05/28 15:47:20;;;;;;;;;;;;;;;;;;137516;1272;25373;-82
2023/05/28 15:50:22;;;;;;;;;;;;;;;;;;137297;1272;22536;-80
2023/05/28 15:53:24;;;;;;;;;;;;;;;;;;137140;1272;22854;-80
2023/05/28 15:56:27;;;;;;;;;;;;;;;;;;137245;1272;22515;-80
2023/05/28 15:59:30;;;;;;;;;;;;;;;;;;137542;1269;22548;-81
2023/05/28 16:02:32;;;;;;;;;;;;;;;;;;137120;1272;22499;-80
2023/05/28 16:05:35;;;;;;;;;;;;;;;;;;137063;1261;22996;-80
2023/05/28 16:08:37;;;;;;;;;;;;;;;;;;137618;1272;22491;-80
2023/05/28 16:11:40;;;;;;;;;;;;;;;;;;137086;1272;22521;-80
2023/05/28 16:14:42;;;;;;;;;;;;;;;;;;137022;1272;22506;-80
2023/05/28 16:17:45;;;;;;;;;;;;;;;;;;137387;1272;25377;-80
2023/05/28 16:20:47;;;;;;;;;;;;;;;;;;137335;1272;22490;-79
2023/05/28 16:23:50;;;;;;;;;;;;;;;;;;137019;1272;22908;-80
2023/05/28 16:26:52;;;;;;;;;;;;;;;;;;137051;1272;22503;-79
2023/05/28 16:29:56;;;;;;;;;;;;;;;;;;137453;1272;22538;-80
2023/05/28 16:33:01;;;;;;;;;;;;;;;;;;137093;1272;22516;-80
2023/05/28 16:36:03;;;;;;;;;;;;;;;;;;136972;1272;22535;-80
2023/05/28 16:39:06;;;;;;;;;;;;;;;;;;137507;1272;22504;-80
2023/05/28 16:42:08;;;;;;;;;;;;;;;;;;137053;1272;22535;-80
2023/05/28 16:45:11;;;;;;;;;;;;;;;;;;137039;1272;22939;-80
2023/05/28 16:48:13;;;;;;;;;;;;;;;;;;137436;1272;22611;-81
2023/05/28 16:51:17;;;;;;;;;;;;;;;;;;137173;1272;22975;-81
2023/05/28 16:54:19;;;;;;;;;;;;;;;;;;137036;1272;22973;-81
2023/05/28 16:57:24;;;;;;;;;;;;;;;;;;137143;1272;22520;-81
2023/05/28 17:00:27;;;;;;;;;;;;;;;;;;137379;1272;22893;-78
2023/05/28 17:03:29;;;;;;;;;;;;;;;;;;136992;1272;22542;-80
2023/05/28 17:06:32;;;;;;;;;;;;;;;;;;137054;1272;22532;-80
2023/05/28 17:09:34;;;;;;;;;;;;;;;;;;137578;1269;22984;-80
2023/05/28 17:12:38;;;;;;;;;;;;;;;;;;137071;1272;22506;-80
2023/05/28 17:15:40;;;;;;;;;;;;;;;;;;137310;1267;22522;-80
2023/05/28 17:18:43;;;;;;;;;;;;;;;;;;137581;1272;22888;-80
2023/05/28 17:21:45;;;;;;;;;;;;;;;;;;137093;1272;22508;-80
2023/05/28 17:24:48;;;;;;;;;;;;;;;;;;137589;1272;22486;-80
2023/05/28 17:27:50;;;;;;;;;;;;;;;;;;137523;1272;22553;-82
2023/05/28 17:30:52;;;;;;;;;;;;;;;;;;137334;1272;22551;-82
2023/05/28 17:33:55;;;;;;;;;;;;;;;;;;137241;1272;22498;-82
2023/05/28 17:36:57;;;;;;;;;;;;;;;;;;137101;1269;22537;-85
2023/05/28 17:40:00;;;;;;;;;;;;;;;;;;137528;1272;22587;-82
2023/05/28 17:43:03;;;;;;;;;;;;;;;;;;137128;1272;23060;-82
2023/05/28 17:46:05;;;;;;;;;;;;;;;;;;136944;1272;22504;-81
2023/05/28 17:49:08;;;;;;;;;;;;;;;;;;137356;1272;22511;-83
2023/05/28 17:52:10;;;;;;;;;;;;;;;;;;137195;1272;22502;-82
2023/05/28 17:55:13;;;;;;;;;;;;;;;;;;137034;1272;22521;-82
2023/05/28 17:58:15;;;;;;;;;;;;;;;;;;137531;1272;22529;-84
2023/05/28 18:01:18;;;;;;;;;;;;;;;;;;137180;1272;22556;-83
2023/05/28 18:04:20;;;;;;;;;;;;;;;;;;137256;1272;22531;-83
2023/05/28 18:07:22;;;;;;;;;;;;;;;;;;137363;1272;22521;-83
2023/05/28 18:10:25;;;;;;;;;;;;;;;;;;137403;1272;22515;-83
2023/05/28 18:13:27;;;;;;;;;;;;;;;;;;137187;1272;22541;-82
2023/05/28 18:16:30;;;;;;;;;;;;;;;;;;137206;1272;22525;-83
2023/05/28 18:19:32;;;;;;;;;;;;;;;;;;137546;1272;22494;-84
2023/05/28 18:22:35;;;;;;;;;;;;;;;;;;137104;1272;22629;-83
2023/05/28 18:25:37;;;;;;;;;;;;;;;;;;137048;1272;23312;-82
2023/05/28 18:28:41;;;;;;;;;;;;;;;;;;137596;1272;22891;-83
2023/05/28 18:31:46;;;;;;;;;;;;;;;;;;137016;1272;22591;-83
2023/05/28 18:34:48;;;;;;;;;;;;;;;;;;137128;1272;22634;-82
2023/05/28 18:37:51;;;;;;;;;;;;;;;;;;137597;1273;22518;-83
2023/05/28 18:40:53;;;;;;;;;;;;;;;;;;137096;1272;22600;-83
2023/05/28 18:43:56;;;;;;;;;;;;;;;;;;137042;1272;22482;-83
2023/05/28 18:47:01;;;;;;;;;;;;;;;;;;137442;1272;22527;-83
2023/05/28 18:50:03;;;;;;;;;;;;;;;;;;137126;1272;22532;-83
2023/05/28 18:53:06;;;;;;;;;;;;;;;;;;137052;1272;22535;-83
2023/05/28 18:56:10;;;;;;;;;;;;;;;;;;137467;1267;23024;-84
2023/05/28 18:59:13;;;;;;;;;;;;;;;;;;137156;1272;22497;-80
2023/05/28 19:02:15;;;;;;;;;;;;;;;;;;137080;1272;22702;-80
2023/05/28 19:05:18;;;;;;;;;;;;;;;;;;137397;1272;25252;-81
2023/05/28 19:08:20;;;;;;;;;;;;;;;;;;137407;1272;22544;-81
2023/05/28 19:11:23;;;;;;;;;;;;;;;;;;137210;1272;22500;-81
2023/05/28 19:14:25;;;;;;;;;;;;;;;;;;137252;1272;22547;-83
2023/05/28 19:17:28;;;;;;;;;;;;;;;;;;137494;1272;22910;-79
2023/05/28 19:20:30;;;;;;;;;;;;;;;;;;136897;1258;22555;-81
2023/05/28 19:23:33;;;;;;;;;;;;;;;;;;137232;1272;22532;-81
2023/05/28 19:26:36;;;;;;;;;;;;;;;;;;137398;1257;22653;-81
2023/05/28 19:29:39;;;;;;;;;;;;;;;;;;137378;1272;22503;-81
2023/05/28 19:32:42;;;;;;;;;;;;;;;;;;137301;1270;22518;-82
2023/05/28 19:35:44;;;;;;;;;;;;;;;;;;137405;1272;23055;-80
2023/05/28 19:38:47;;;;;;;;;;;;;;;;;;137442;1272;22503;-81
2023/05/28 19:41:50;;;;;;;;;;;;;;;;;;137427;1272;23000;-83
2023/05/28 19:44:52;;;;;;;;;;;;;;;;;;137648;1272;22524;-82
2023/05/28 19:47:55;;;;;;;;;;;;;;;;;;137611;1272;22940;-81
2023/05/28 19:50:57;;;;;;;;;;;;;;;;;;137571;1272;22547;-81
2023/05/28 19:54:00;;;;;;;;;;;;;;;;;;137578;1272;22616;-80
2023/05/28 19:57:03;;;;;;;;;;;;;;;;;;137594;1272;22650;-80
2023/05/28 20:00:07;;;;;;;;;;;;;;;;;;137606;1272;23078;-81
2023/05/28 20:03:10;;;;;;;;;;;;;;;;;;137490;1272;22556;-81
2023/05/28 20:06:12;;;;;;;;;;;;;;;;;;137587;1272;22494;-84
2023/05/28 20:09:15;;;;;;;;;;;;;;;;;;137444;1272;22524;-79
2023/05/28 20:12:17;;;;;;;;;;;;;;;;;;137550;1272;22497;-81
2023/05/28 20:15:20;;;;;;;;;;;;;;;;;;137624;1272;23264;-81
2023/05/28 20:18:23;;;;;;;;;;;;;;;;;;137538;1272;22530;-80
2023/05/28 20:21:25;;;;;;;;;;;;;;;;;;137591;1272;22882;-80
2023/05/28 20:24:27;;;;;;;;;;;;;;;;;;137459;1272;23020;-81
2023/05/28 20:27:31;;;;;;;;;;;;;;;;;;137318;1272;22530;-81
2023/05/28 20:30:33;;;;;;;;;;;;;;;;;;137624;1272;22498;-81
2023/05/28 20:33:36;;;;;;;;;;;;;;;;;;137580;1272;22527;-80
2023/05/28 20:36:38;;;;;;;;;;;;;;;;;;137482;1272;22942;-81
2023/05/28 20:39:41;;;;;;;;;;;;;;;;;;137651;1272;23065;-81
2023/05/28 20:42:45;;;;;;;;;;;;;;;;;;137542;1272;22562;-80
2023/05/28 20:45:49;;;;;;;;;;;;;;;;;;137457;1272;22517;-80
2023/05/28 20:48:51;;;;;;;;;;;;;;;;;;137600;1270;22501;-80
2023/05/28 20:51:54;;;;;;;;;;;;;;;;;;137516;1272;22514;-80
2023/05/28 20:54:56;;;;;;;;;;;;;;;;;;137634;1267;22526;-81
2023/05/28 20:58:00;;;;;;;;;;;;;;;;;;137564;1272;22537;-80
2023/05/28 21:01:03;;;;;;;;;;;;;;;;;;137636;1272;22994;-81
2023/05/28 21:04:05;;;;;;;;;;;;;;;;;;137614;1268;22540;-80
2023/05/28 21:07:07;;;;;;;;;;;;;;;;;;137566;1272;22500;-80
2023/05/28 21:10:10;;;;;;;;;;;;;;;;;;137556;1272;25335;-80
2023/05/28 21:13:13;;;;;;;;;;;;;;;;;;137619;1272;22535;-81
2023/05/28 21:16:15;;;;;;;;;;;;;;;;;;137526;1272;22510;-80
2023/05/28 21:19:17;;;;;;;;;;;;;;;;;;137507;1272;22496;-81
2023/05/28 21:22:22;;;;;;;;;;;;;;;;;;137610;1272;22499;-81
2023/05/28 21:25:24;;;;;;;;;;;;;;;;;;137565;1265;22655;-81
2023/05/28 21:28:27;;;;;;;;;;;;;;;;;;137497;1272;22507;-81
2023/05/28 21:31:29;;;;;;;;;;;;;;;;;;137547;1272;22597;-81
2023/05/28 21:34:32;;;;;;;;;;;;;;;;;;137665;1272;22377;-80